Clymer, New York
Current Conditions -  °F | °C
As of 6:15 AM on Friday 28 Nov 2014 (Local Time) from KJHW Reporting Station
Broken Clouds Broken Clouds  
Wind Chill: 11°   Ceiling: 3400
Heat Index: 21°   Visibility: 5mi
Dew Point: 12°   Wind: 9mph
Humidity: 68%   Direction: 300°WNW
Pressure: 30.18"   Gusts: NA
Location:  42.02°N, 79.63°W
Report Text: KJHW 281115Z 30008KT 5SM FEW017 SCT023 BKN034 M06/M11 A3018 RMK AO1
Loading
Personal Weather Stations






























Interactive Weather Map New forecast layout! Learn more

10-Day Weather Forecast

Advertisements
Track Severe Weather on mobile